Sven Haas

Olheiro - VfB Stuttgart
22 Fev 2028
Terça-feira
Processo

Personalidade

Adaptabilidade (2) Ambição (3) Controvérsia (19) Lealdade (6) Pressão (7) Profissionalismo (9) Espírito Esportivo (2) Temperamento (12)

Perfil

Estilo de Treinamento Democrático
Licença Nacional A
Determinação 15
Gestão de Pessoas 11
Motivação 12
Disciplina 9
Satisfação no Trabalho
100%
Fadiga
0%
Função Olheiro
Salário 34.3K p/s
Contrato 14.03.2030

Desempenho

Comportamento Bom
Eficácia do Treinamento
55%
Desenvolvimento do Jogador
35%
Prevenção de Lesões
70%
Implementação Tática
55%

Eventos Recentes

Participou de uma reunião de recrutamento 7d atrás
Participou de uma reunião de recrutamento 14d atrás
Recomendou um alvo de transferência 14d atrás
Observou uma partida 14d atrás
Participou de uma reunião de recrutamento 21d atrás
Recomendou um alvo de transferência 21d atrás
Observou uma partida 21d atrás
Observou uma partida 28d atrás

Monitorando agora

90
Jogador Clube Status Habilidade Confiança Observado Última observação Último voto
Giacomo Bonaventura Borussia Dortmund Perdido 143 / 144 72% 1 17.01.2028 Aprovar
Christian Günter SC Freiburg Perdido 139 / 132 72% 1 10.01.2028 Aprovar
Ethan Nwaneri Arsenal Ativo 153 / 159 40% 1 10.01.2028 -
Luca Williams-Barnett Tranmere Rovers Negociando 126 / 122 40% 1 10.01.2028 -
Josh Nichols Tranmere Rovers Ativo 118 / 118 40% 1 10.01.2028 -
Josh Keeley Tigres Ativo 137 / 142 40% 2 31.12.2027 -
Joe Whitworth Stockport County Ativo 123 / 120 40% 1 31.12.2027 -
Christ Inao Oulaï Fiorentina Ativo 138 / 137 40% 2 16.08.2027 -
Marc Bernal Real Sociedad Ativo 150 / 160 40% 2 16.08.2027 -
Jesús Rodríguez Como Ativo 155 / 145 40% 1 16.08.2027 -
Sergio Barlocco Trento Ativo 110 / 124 40% 2 10.08.2027 -
Robin Roefs Sunderland Ativo 149 / 152 40% 1 10.08.2027 -
Walid Juma Al Shaab Ativo 117 / 106 40% 1 10.08.2027 -
Matías Gómez Granada Ativo 120 / 125 40% 2 27.07.2027 -
Yusi Alavés Ativo 130 / 133 40% 2 27.07.2027 -
Josh King Chelsea Ativo 147 / 141 40% 1 19.07.2027 -
Jan Bürger Gillingham Ativo 106 / 122 40% 1 31.05.2027 -
Niklas Steffen Thun Ativo 114 / 116 40% 1 18.01.2027 -
Bradley Mabunda SuperSport United Ativo 105 / 104 40% 1 18.01.2027 -
Ousmane Dembélé Paris Saint-Germain Ativo 192 / 176 40% 4 31.12.2026 -
Ferran Torres Paris Saint-Germain Ativo 167 / 170 40% 2 31.12.2026 -
Álex Baena Atlético Madrid Ativo 162 / 160 40% 3 30.12.2026 -
Gavi Barcelona Ativo 152 / 156 40% 4 30.12.2026 -
Marcus Rashford Manchester United Ativo 165 / 148 40% 1 30.12.2026 -
Alejandro Grimaldo Atlético Madrid Ativo 164 / 159 40% 2 28.12.2026 -
Matheus Cunha Manchester United Ativo 165 / 161 40% 2 28.12.2026 -
Nico Williams Athletic Bilbao Ativo 173 / 171 40% 5 28.12.2026 -
Cody Gakpo Liverpool Ativo 159 / 153 40% 2 28.12.2026 -
Ozziel Herrera Tigres Ativo 130 / 130 40% 1 28.12.2026 -
Matt O'Riley Brighton Ativo 144 / 151 40% 3 26.12.2026 -
Nicolas Jackson Aston Villa Ativo 153 / 141 40% 2 26.12.2026 -
Martin Ødegaard Arsenal Ativo 171 / 169 40% 3 23.12.2026 -
Kai Havertz Arsenal Ativo 157 / 153 40% 9 23.12.2026 -
João Pedro Chelsea Ativo 148 / 157 40% 3 23.12.2026 -
Kang-In Lee Atlético Madrid Ativo 161 / 166 40% 4 22.12.2026 -
Kiernan Dewsbury-Hall Everton Ativo 154 / 145 40% 2 22.12.2026 -
Mason Mount Manchester United Ativo 162 / 159 40% 2 21.12.2026 -
Marco Asensio Fenerbahce Perdido 163 / 160 40% 2 20.12.2026 -
Callum Hudson-Odoi Nottingham Forest Ativo 143 / 158 40% 1 17.12.2026 -
Pablo Barrios Atlético Madrid Ativo 156 / 163 40% 2 15.12.2026 -
Andrés Martín Racing Santander Ativo 133 / 130 40% 4 15.12.2026 -
Gabriel Martinelli Brighton Ativo 160 / 160 40% 4 12.12.2026 -
Maurits Kjærgaard Red Bull Salzburg Ativo 126 / 126 40% 1 12.12.2026 -
Thiago Brentford Ativo 141 / 148 40% 1 12.12.2026 -
Juan-José Perea Zurich Ativo 127 / 124 40% 2 11.12.2026 -
Jonathan Dubasin Osasuna Ativo 146 / 140 40% 1 11.12.2026 -
Tani Oluwaseyi Villarreal Ativo 145 / 138 40% 1 10.12.2026 -
Ibrahim Salah Basel Ativo 125 / 129 40% 1 06.12.2026 -
Philippe Keny Zurich Ativo 125 / 116 40% 1 05.12.2026 -
Johnny Cardoso Atlético Madrid Ativo 162 / 153 40% 3 03.12.2026 -
Ademola Lookman Atlético Madrid Ativo 151 / 152 40% 2 03.12.2026 -
Álex Berenguer Athletic Bilbao Ativo 145 / 145 40% 2 01.12.2026 -
Iliman N'Diaye Everton Ativo 153 / 153 40% 2 01.12.2026 -
Rômulo RB Leipzig Ativo 138 / 137 40% 1 01.12.2026 -
Themba Ngcobo SuperSport United Ativo 106 / 128 40% 2 27.11.2026 -
Georginio Rutter Brighton Ativo 148 / 141 40% 2 24.11.2026 -
Declan Rice Arsenal Ativo 186 / 182 40% 3 23.11.2026 -
Sinan Karweina Luzern Ativo 112 / 113 40% 1 20.11.2026 -
Sandro Tonali Tottenham Ativo 164 / 170 40% 4 19.11.2026 -
Alexis Mac Allister Liverpool Ativo 170 / 153 40% 5 14.11.2026 -
Luis Díaz Bayern Munich Ativo 176 / 163 40% 1 09.11.2026 -
Ez Abde Girona Ativo 140 / 156 40% 1 02.11.2026 -
Ayo Akinola Vaduz Ativo 111 / 116 40% 1 31.10.2026 -
Carlos Vicente Birmingham Ativo 146 / 144 40% 1 29.10.2026 -
Oihan Sancet Athletic Bilbao Ativo 166 / 157 40% 1 27.10.2026 -
Aimar Osasuna Ativo 155 / 144 40% 1 22.10.2026 -
Sota Kitano Luzern Ativo 117 / 133 40% 2 18.10.2026 -
Rayan Cherki Manchester City Ativo 170 / 162 40% 2 13.10.2026 -
Rilind Nivokazi Sion Ativo 118 / 118 40% 1 08.10.2026 -
Rafael Navarro St. Louis CITY SC Ativo 129 / 123 40% 1 07.10.2026 -
Jérémy Doku Manchester City Ativo 167 / 172 40% 2 30.09.2026 -
Santi Comesaña Villarreal Ativo 148 / 157 40% 1 29.09.2026 -
Aurélien Tchouaméni Real Madrid Ativo 174 / 160 40% 2 26.09.2026 -
Ryan Gravenberch Liverpool Ativo 163 / 162 40% 1 26.09.2026 -
Nadiem Amiri Mainz 05 Ativo 147 / 151 40% 1 23.09.2026 -
Moisés Caicedo Chelsea Ativo 173 / 169 40% 2 22.09.2026 -
Ibrahima Konaté Real Madrid Ativo 166 / 151 40% 1 22.09.2026 -
Matheus Nunes Manchester City Ativo 165 / 164 40% 1 21.09.2026 -
Nico Schlotterbeck Borussia Dortmund Ativo 164 / 160 40% 1 19.09.2026 -
Adam Wharton Crystal Palace Ativo 154 / 150 40% 1 19.09.2026 -
Dominik Szoboszlai Liverpool Ativo 170 / 160 40% 1 19.09.2026 -
Eduardo Camavinga Real Madrid Ativo 155 / 165 40% 1 19.09.2026 -
Xaver Schlager Nottingham Forest Ativo 147 / 153 40% 1 16.09.2026 -
Mats Wieffer Brighton Ativo 146 / 145 40% 1 16.09.2026 -
Aleksandar Pavlović Bayern Munich Ativo 142 / 156 40% 1 15.09.2026 -
Martín Zubimendi Arsenal Ativo 153 / 165 40% 1 14.09.2026 -
Xavi Simons Tottenham Ativo 162 / 151 40% 1 14.09.2026 -
Jan Paul van Hecke Tottenham Ativo 150 / 165 40% 1 11.09.2026 -
Sven Botman Newcastle United Ativo 157 / 163 40% 1 11.09.2026 -
Tyler Adams Bournemouth Ativo 151 / 160 40% 1 08.09.2026 -